Time;durP1;ratioP1;P1;durP2;ratioP2;P2;SDS_P1;SDS_P2;PMS_P1;PMS_P2;Temp;Humidity;BMP_temperature;BMP_pressure;BME280_temperature;BME280_humidity;BME280_pressure;Samples;Min_cycle;Max_cycle;Signal;HPM_P1;HPM_P2
2021/12/04 00:00:08;;;;;;;3.17;2.90;;;;;;;;;;5031994;28;20242;-76
2021/12/04 00:02:35;;;;;;;4.03;2.97;;;;;;;;;;5032657;28;20305;-76
2021/12/04 00:05:04;;;;;;;4.07;2.60;;;;;;;;;;5051226;28;20280;-77
2021/12/04 00:07:33;;;;;;;3.87;3.13;;;;;;;;;;5052871;28;20214;-76
2021/12/04 00:10:02;;;;;;;4.37;3.30;;;;;;;;;;5052110;28;20361;-76
2021/12/04 00:12:31;;;;;;;2.53;2.37;;;;;;;;;;5052388;28;20635;-76
2021/12/04 00:15:00;;;;;;;3.03;2.73;;;;;;;;;;5051712;28;20230;-77
2021/12/04 00:17:27;;;;;;;3.33;3.03;;;;;;;;;;5052187;28;20666;-76
2021/12/04 00:19:54;;;;;;;2.97;2.67;;;;;;;;;;5047468;28;20235;-76
2021/12/04 00:22:21;;;;;;;3.03;2.67;;;;;;;;;;5042413;28;20257;-77
2021/12/04 00:24:48;;;;;;;3.03;2.73;;;;;;;;;;5031562;28;20245;-76
2021/12/04 00:27:15;;;;;;;3.63;2.97;;;;;;;;;;5032717;28;20633;-78
2021/12/04 00:29:42;;;;;;;4.50;3.23;;;;;;;;;;5032565;28;20233;-76
2021/12/04 00:32:13;;;;;;;3.50;3.07;;;;;;;;;;5032711;28;20214;-76
2021/12/04 00:34:43;;;;;;;3.13;2.67;;;;;;;;;;5031310;28;20235;-76
2021/12/04 00:37:28;;;;;;;3.67;2.80;;;;;;;;;;5032816;28;20578;-76
2021/12/04 00:51:05;;;;;;;3.63;2.90;;;;;;;;;;5030481;28;20599;-75
2021/12/04 00:53:32;;;;;;;3.83;3.23;;;;;;;;;;5032121;28;20589;-75
2021/12/04 00:55:59;;;;;;;7.23;3.50;;;;;;;;;;5031582;28;20226;-76
2021/12/04 00:58:26;;;;;;;3.40;3.10;;;;;;;;;;5032426;28;20206;-76
2021/12/04 01:00:53;;;;;;;3.17;2.97;;;;;;;;;;5031953;28;20242;-77
2021/12/04 01:03:22;;;;;;;2.77;2.63;;;;;;;;;;5033033;28;20233;-77
2021/12/04 01:05:49;;;;;;;3.40;2.90;;;;;;;;;;5032789;28;20242;-77
2021/12/04 01:08:16;;;;;;;4.17;3.00;;;;;;;;;;5033517;28;20567;-77
2021/12/04 01:10:43;;;;;;;3.00;2.80;;;;;;;;;;5032848;28;20242;-78
2021/12/04 01:13:11;;;;;;;3.03;2.83;;;;;;;;;;5033619;28;20226;-77
2021/12/04 01:15:39;;;;;;;3.30;3.00;;;;;;;;;;5032774;28;20646;-77
2021/12/04 01:18:06;;;;;;;3.13;2.93;;;;;;;;;;5033758;28;20229;-77
2021/12/04 01:20:34;;;;;;;3.00;2.80;;;;;;;;;;5032481;28;20236;-78
2021/12/04 01:23:01;;;;;;;3.70;2.93;;;;;;;;;;5033882;28;20227;-77
2021/12/04 01:25:28;;;;;;;4.00;3.70;;;;;;;;;;5032895;28;20615;-77
2021/12/04 01:27:56;;;;;;;34.80;16.67;;;;;;;;;;5032325;28;20210;-77
2021/12/04 01:30:24;;;;;;;3.93;3.53;;;;;;;;;;5031608;28;20249;-78
2021/12/04 01:32:51;;;;;;;3.03;2.83;;;;;;;;;;5031955;28;20212;-78
2021/12/04 01:35:18;;;;;;;3.83;2.90;;;;;;;;;;5031000;28;20714;-77
2021/12/04 01:37:46;;;;;;;8.17;5.13;;;;;;;;;;5032157;28;20206;-78
2021/12/04 01:40:14;;;;;;;4.00;3.10;;;;;;;;;;5032033;28;20233;-78
2021/12/04 01:42:41;;;;;;;4.77;3.37;;;;;;;;;;5032699;28;20207;-78
2021/12/04 01:45:09;;;;;;;24.03;11.20;;;;;;;;;;5033041;28;20732;-78
2021/12/04 01:47:36;;;;;;;11.43;6.57;;;;;;;;;;5037974;28;20231;-78
2021/12/04 01:50:03;;;;;;;5.67;3.37;;;;;;;;;;5036817;28;20241;-78
2021/12/04 01:52:30;;;;;;;3.73;3.27;;;;;;;;;;5037819;28;20208;-78
2021/12/04 01:54:59;;;;;;;3.57;3.27;;;;;;;;;;5036436;28;20242;-79
2021/12/04 01:57:26;;;;;;;3.93;3.13;;;;;;;;;;5053541;28;20232;-79
2021/12/04 01:59:54;;;;;;;14.03;5.63;;;;;;;;;;5074705;28;20220;-79
2021/12/04 02:02:21;;;;;;;5.83;4.43;;;;;;;;;;5067350;28;20194;-79
2021/12/04 02:04:48;;;;;;;3.07;2.87;;;;;;;;;;5059259;28;20237;-80
2021/12/04 02:07:16;;;;;;;4.33;3.50;;;;;;;;;;5055480;28;20230;-80
2021/12/04 02:09:43;;;;;;;3.17;2.97;;;;;;;;;;5058206;28;20233;-80
2021/12/04 02:12:12;;;;;;;3.83;3.20;;;;;;;;;;5057452;28;20561;-79
2021/12/04 02:14:41;;;;;;;10.57;5.80;;;;;;;;;;5056826;28;20241;-79
2021/12/04 02:17:09;;;;;;;7.87;5.07;;;;;;;;;;5056930;28;20229;-79
2021/12/04 02:19:36;;;;;;;5.53;3.70;;;;;;;;;;5056568;28;20233;-79
2021/12/04 02:22:05;;;;;;;4.80;3.27;;;;;;;;;;5056831;28;20210;-80
2021/12/04 02:24:32;;;;;;;3.83;3.37;;;;;;;;;;5054970;28;20234;-80
2021/12/04 02:26:59;;;;;;;3.43;2.90;;;;;;;;;;5036335;28;20690;-80
2021/12/04 02:29:26;;;;;;;5.13;3.63;;;;;;;;;;5036002;28;20260;-79
2021/12/04 02:31:59;;;;;;;4.03;3.33;;;;;;;;;;5036074;28;20210;-80
2021/12/04 02:34:27;;;;;;;3.87;3.50;;;;;;;;;;5043515;28;20238;-79
2021/12/04 02:36:54;;;;;;;4.23;3.80;;;;;;;;;;5037085;28;20206;-79
2021/12/04 02:39:25;;;;;;;3.33;3.03;;;;;;;;;;5035611;28;20691;-79
2021/12/04 02:41:52;;;;;;;3.87;3.50;;;;;;;;;;5035523;28;20305;-79
2021/12/04 02:44:19;;;;;;;15.67;9.47;;;;;;;;;;5034342;28;20230;-79
2021/12/04 02:46:47;;;;;;;21.63;12.73;;;;;;;;;;5035002;28;20233;-79
2021/12/04 02:49:15;;;;;;;11.83;7.00;;;;;;;;;;5034705;28;20218;-79
2021/12/04 02:51:42;;;;;;;11.30;7.37;;;;;;;;;;5035185;28;20264;-79
2021/12/04 02:54:12;;;;;;;11.00;5.63;;;;;;;;;;5034289;28;20239;-80
2021/12/04 02:56:43;;;;;;;5.20;3.67;;;;;;;;;;5034408;28;20207;-79
2021/12/04 02:59:10;;;;;;;4.67;4.10;;;;;;;;;;5034627;28;20187;-79
2021/12/04 03:01:38;;;;;;;3.87;3.57;;;;;;;;;;5043496;28;20268;-79
2021/12/04 03:04:06;;;;;;;3.97;3.63;;;;;;;;;;5054728;28;20230;-79
2021/12/04 03:06:38;;;;;;;3.40;3.10;;;;;;;;;;5054618;28;20226;-79
2021/12/04 03:09:05;;;;;;;4.23;3.10;;;;;;;;;;5054620;28;20187;-79
2021/12/04 03:11:32;;;;;;;3.63;3.33;;;;;;;;;;5054219;28;20575;-79
2021/12/04 03:14:01;;;;;;;4.00;3.57;;;;;;;;;;5055089;28;20252;-79
2021/12/04 03:16:28;;;;;;;6.47;3.40;;;;;;;;;;5054373;28;20236;-79
2021/12/04 03:18:55;;;;;;;4.63;3.30;;;;;;;;;;5054778;28;20210;-80
2021/12/04 03:21:22;;;;;;;3.90;3.60;;;;;;;;;;5053971;28;20265;-80
2021/12/04 03:23:55;;;;;;;5.03;3.37;;;;;;;;;;5054644;28;20226;-79
2021/12/04 03:26:23;;;;;;;4.30;3.90;;;;;;;;;;5053811;28;20246;-80
2021/12/04 03:28:51;;;;;;;4.50;3.60;;;;;;;;;;5054911;28;20227;-79
2021/12/04 03:31:23;;;;;;;5.77;3.97;;;;;;;;;;5053492;28;20265;-79
2021/12/04 03:42:06;;;;;;;4.60;4.10;;;;;;;;;;5057923;28;20193;-79
2021/12/04 03:44:33;;;;;;;4.33;3.90;;;;;;;;;;5057463;28;20238;-80
2021/12/04 03:47:01;;;;;;;4.53;3.50;;;;;;;;;;5052793;28;20584;-80
2021/12/04 03:49:29;;;;;;;4.10;3.70;;;;;;;;;;5046933;28;20236;-80
2021/12/04 03:51:56;;;;;;;4.53;4.13;;;;;;;;;;5042165;28;20203;-80
2021/12/04 03:54:23;;;;;;;5.17;4.10;;;;;;;;;;5036473;28;20234;-80
2021/12/04 03:57:00;;;;;;;4.40;4.00;;;;;;;;;;5037023;28;20667;-80
2021/12/04 03:59:27;;;;;;;4.90;4.17;;;;;;;;;;5036848;28;20722;-80
2021/12/04 04:01:54;;;;;;;4.07;3.77;;;;;;;;;;5035638;28;20214;-80
2021/12/04 04:04:23;;;;;;;5.77;4.33;;;;;;;;;;5034582;28;20242;-80
2021/12/04 04:06:50;;;;;;;4.03;3.63;;;;;;;;;;5035493;28;20231;-79
2021/12/04 04:09:17;;;;;;;4.37;3.73;;;;;;;;;;5035037;28;20207;-80
2021/12/04 04:11:44;;;;;;;4.83;3.93;;;;;;;;;;5036842;28;20666;-80
2021/12/04 04:14:11;;;;;;;4.40;4.00;;;;;;;;;;5037319;28;20223;-80
2021/12/04 04:16:40;;;;;;;4.17;3.60;;;;;;;;;;5037818;28;20199;-79
2021/12/04 04:19:07;;;;;;;4.60;4.20;;;;;;;;;;5034479;28;20211;-79
2021/12/04 04:21:39;;;;;;;4.03;3.63;;;;;;;;;;5053328;28;20202;-81
2021/12/04 04:24:07;;;;;;;3.97;3.57;;;;;;;;;;5046195;28;20265;-81
2021/12/04 04:26:34;;;;;;;4.23;3.83;;;;;;;;;;5053512;28;20229;-80
2021/12/04 04:29:01;;;;;;;3.70;3.50;;;;;;;;;;5053543;28;20210;-80
2021/12/04 04:31:29;;;;;;;4.23;3.37;;;;;;;;;;5053563;28;20217;-79
2021/12/04 04:34:00;;;;;;;3.60;3.30;;;;;;;;;;5053152;28;20265;-80
2021/12/04 04:36:40;;;;;;;3.47;3.27;;;;;;;;;;5053007;28;20252;-79
2021/12/04 04:39:19;;;;;;;3.67;3.33;;;;;;;;;;5052302;28;20248;-80
2021/12/04 04:58:26;;;;;;;8.73;3.20;;;;;;;;;;5052589;28;20213;-80
2021/12/04 05:12:13;;;;;;;3.37;3.07;;;;;;;;;;5032811;28;20282;-80
2021/12/04 05:14:43;;;;;;;3.63;3.20;;;;;;;;;;5031984;28;20230;-80
2021/12/04 05:17:13;;;;;;;4.80;3.60;;;;;;;;;;5032435;28;20203;-80
2021/12/04 05:19:43;;;;;;;3.80;3.50;;;;;;;;;;5032282;28;20290;-79
2021/12/04 05:22:11;;;;;;;4.47;4.07;;;;;;;;;;5032717;28;20631;-80
2021/12/04 05:24:38;;;;;;;4.50;3.47;;;;;;;;;;5031743;28;20241;-79
2021/12/04 05:27:07;;;;;;;4.27;3.87;;;;;;;;;;5032395;28;20267;-79
2021/12/04 05:29:34;;;;;;;4.00;3.70;;;;;;;;;;5032071;28;20229;-79
2021/12/04 05:32:01;;;;;;;4.53;4.13;;;;;;;;;;5032482;28;20564;-79
2021/12/04 05:34:29;;;;;;;4.70;4.30;;;;;;;;;;5031799;28;20813;-80
2021/12/04 05:36:56;;;;;;;4.63;4.20;;;;;;;;;;5032429;28;20659;-80
2021/12/04 05:39:23;;;;;;;4.53;4.13;;;;;;;;;;5032126;28;20230;-80
2021/12/04 05:41:51;;;;;;;5.07;4.27;;;;;;;;;;5032713;28;20209;-79
2021/12/04 05:44:23;;;;;;;5.00;4.27;;;;;;;;;;5031723;28;20234;-79
2021/12/04 05:46:54;;;;;;;4.60;4.20;;;;;;;;;;5031901;28;20226;-79
2021/12/04 05:49:25;;;;;;;4.17;3.83;;;;;;;;;;5032321;28;20237;-79
2021/12/04 05:54:57;;;;;;;6.60;4.00;;;;;;;;;;5016304;28;20284;-80
2021/12/04 05:57:24;;;;;;;4.33;4.00;;;;;;;;;;5032350;28;20253;-79
2021/12/04 05:59:52;;;;;;;3.90;3.60;;;;;;;;;;5031569;28;20745;-79
2021/12/04 06:02:20;;;;;;;4.77;4.17;;;;;;;;;;5046100;28;20662;-80
2021/12/04 06:04:48;;;;;;;4.57;4.07;;;;;;;;;;5051229;28;20756;-79
2021/12/04 06:07:15;;;;;;;4.63;4.17;;;;;;;;;;5052014;28;20229;-80
2021/12/04 06:09:42;;;;;;;3.70;3.40;;;;;;;;;;5051981;28;20229;-80
2021/12/04 06:12:09;;;;;;;3.90;3.60;;;;;;;;;;5052706;28;20213;-80
2021/12/04 06:14:36;;;;;;;3.80;3.50;;;;;;;;;;5051445;28;20230;-79
2021/12/04 06:17:06;;;;;;;4.17;3.77;;;;;;;;;;5052194;28;20214;-80
2021/12/04 06:25:02;;;;;;;4.47;4.07;;;;;;;;;;5051371;28;20282;-80
2021/12/04 06:27:29;;;;;;;4.47;4.07;;;;;;;;;;5051750;28;20236;-80
2021/12/04 06:29:56;;;;;;;4.23;3.83;;;;;;;;;;5051287;28;20237;-79
2021/12/04 06:32:24;;;;;;;5.00;4.00;;;;;;;;;;5053942;28;20220;-80
2021/12/04 06:34:52;;;;;;;3.83;3.57;;;;;;;;;;5054629;28;20250;-80
2021/12/04 06:37:19;;;;;;;4.87;3.73;;;;;;;;;;5055338;28;20202;-79
2021/12/04 06:39:46;;;;;;;4.27;3.87;;;;;;;;;;5055101;28;20238;-80
2021/12/04 06:42:13;;;;;;;5.23;3.93;;;;;;;;;;5055109;28;20268;-79
2021/12/04 06:44:40;;;;;;;3.67;3.37;;;;;;;;;;5054555;28;20229;-80
2021/12/04 06:47:07;;;;;;;3.93;3.63;;;;;;;;;;5055015;28;20728;-79
2021/12/04 06:49:38;;;;;;;6.10;3.57;;;;;;;;;;5054639;28;20237;-79
2021/12/04 06:52:10;;;;;;;3.80;3.50;;;;;;;;;;5055089;28;20190;-79
2021/12/04 06:54:39;;;;;;;4.33;3.47;;;;;;;;;;5054282;28;20230;-80
2021/12/04 06:57:09;;;;;;;3.70;3.40;;;;;;;;;;5055011;28;20237;-79
2021/12/04 06:59:39;;;;;;;5.20;3.50;;;;;;;;;;5054533;28;20226;-80
2021/12/04 07:02:06;;;;;;;5.13;3.63;;;;;;;;;;5043006;28;20218;-79
2021/12/04 07:04:37;;;;;;;4.87;3.60;;;;;;;;;;5034249;28;20234;-79
2021/12/04 07:07:06;;;;;;;4.93;3.80;;;;;;;;;;5035499;28;20227;-78
2021/12/04 07:09:33;;;;;;;4.67;3.70;;;;;;;;;;5034597;28;20235;-77
2021/12/04 07:12:01;;;;;;;4.37;3.90;;;;;;;;;;5034960;28;20230;-77
2021/12/04 07:14:28;;;;;;;5.33;3.80;;;;;;;;;;5034246;28;20234;-77
2021/12/04 07:16:55;;;;;;;4.77;4.37;;;;;;;;;;5034866;28;20226;-77
2021/12/04 07:19:23;;;;;;;7.43;4.30;;;;;;;;;;5033913;28;20234;-77
2021/12/04 07:21:50;;;;;;;8.00;4.23;;;;;;;;;;5034930;28;20573;-77
2021/12/04 07:24:18;;;;;;;6.27;4.80;;;;;;;;;;5033805;28;20227;-78
2021/12/04 07:26:46;;;;;;;8.40;4.60;;;;;;;;;;5034831;28;20202;-77
2021/12/04 07:29:13;;;;;;;4.27;3.87;;;;;;;;;;5033768;28;20281;-77
2021/12/04 07:31:40;;;;;;;6.40;4.73;;;;;;;;;;5034827;28;20265;-77
2021/12/04 07:34:07;;;;;;;5.60;4.40;;;;;;;;;;5033635;28;20771;-77
2021/12/04 07:36:34;;;;;;;5.57;4.63;;;;;;;;;;5034393;28;20207;-78
2021/12/04 07:39:01;;;;;;;5.50;4.97;;;;;;;;;;5033812;28;20319;-77
2021/12/04 07:41:30;;;;;;;10.03;4.50;;;;;;;;;;5034878;28;20207;-77
2021/12/04 07:43:57;;;;;;;5.27;4.47;;;;;;;;;;5035406;28;20552;-75
2021/12/04 07:46:24;;;;;;;5.27;4.73;;;;;;;;;;5034051;28;20238;-79
2021/12/04 07:48:51;;;;;;;4.60;4.20;;;;;;;;;;5033931;28;20578;-78
2021/12/04 07:51:18;;;;;;;5.07;4.57;;;;;;;;;;5032973;28;20238;-78
2021/12/04 07:53:47;;;;;;;11.07;4.63;;;;;;;;;;5033421;28;20238;-78
2021/12/04 07:56:14;;;;;;;7.00;4.50;;;;;;;;;;5032649;28;20258;-78
2021/12/04 07:58:43;;;;;;;5.70;4.40;;;;;;;;;;5033806;28;20207;-78
2021/12/04 08:01:10;;;;;;;11.23;5.00;;;;;;;;;;5037450;28;20658;-78
2021/12/04 08:03:37;;;;;;;7.60;4.67;;;;;;;;;;5052440;28;20226;-78
2021/12/04 08:06:05;;;;;;;5.30;4.33;;;;;;;;;;5052190;28;20234;-78
2021/12/04 08:08:32;;;;;;;7.93;5.13;;;;;;;;;;5053345;28;20280;-77
2021/12/04 08:10:59;;;;;;;6.37;4.50;;;;;;;;;;5052702;28;20240;-78
2021/12/04 08:13:27;;;;;;;7.97;5.37;;;;;;;;;;5052872;28;20238;-78
2021/12/04 08:15:56;;;;;;;9.13;5.03;;;;;;;;;;5052429;28;20641;-77
2021/12/04 08:18:23;;;;;;;8.40;5.83;;;;;;;;;;5053326;28;20206;-78
2021/12/04 08:20:50;;;;;;;6.80;5.27;;;;;;;;;;5052791;28;20287;-78
2021/12/04 08:23:18;;;;;;;12.67;4.90;;;;;;;;;;5052858;28;20313;-77
2021/12/04 08:25:45;;;;;;;6.30;5.00;;;;;;;;;;5052610;28;20237;-78
2021/12/04 08:28:12;;;;;;;7.27;5.43;;;;;;;;;;5052884;28;20225;-77
2021/12/04 08:30:40;;;;;;;7.77;5.53;;;;;;;;;;5052618;28;20237;-77
2021/12/04 08:33:09;;;;;;;7.60;5.00;;;;;;;;;;5052785;28;20226;-77
2021/12/04 08:35:39;;;;;;;7.77;4.67;;;;;;;;;;5046174;28;20233;-77
2021/12/04 08:38:06;;;;;;;6.17;4.50;;;;;;;;;;5052867;28;20210;-78
2021/12/04 08:40:34;;;;;;;4.70;4.13;;;;;;;;;;5050614;28;20238;-78
2021/12/04 08:43:01;;;;;;;6.50;4.60;;;;;;;;;;5032516;28;20887;-77
2021/12/04 08:45:29;;;;;;;6.50;4.60;;;;;;;;;;5044668;28;20237;-78
2021/12/04 08:47:56;;;;;;;5.73;4.37;;;;;;;;;;5042801;28;20226;-77
2021/12/04 08:50:26;;;;;;;5.57;4.40;;;;;;;;;;5050420;28;20291;-77
2021/12/04 08:52:54;;;;;;;8.40;4.67;;;;;;;;;;5049917;28;20614;-77
2021/12/04 08:55:22;;;;;;;5.03;4.23;;;;;;;;;;5048337;28;20244;-77
2021/12/04 08:57:49;;;;;;;8.27;4.23;;;;;;;;;;5051791;28;20228;-77
2021/12/04 09:00:18;;;;;;;4.10;3.70;;;;;;;;;;5051418;28;20744;-78
2021/12/04 09:02:46;;;;;;;5.43;3.97;;;;;;;;;;5042083;28;20206;-77
2021/12/04 09:05:15;;;;;;;5.73;4.20;;;;;;;;;;5031440;28;20226;-77
2021/12/04 09:07:44;;;;;;;4.40;4.03;;;;;;;;;;5032390;28;20231;-78
2021/12/04 09:10:12;;;;;;;6.23;4.10;;;;;;;;;;5031822;28;20238;-77
2021/12/04 09:12:40;;;;;;;4.60;4.17;;;;;;;;;;5032054;28;20570;-77
2021/12/04 09:15:09;;;;;;;5.37;4.43;;;;;;;;;;5031355;28;20254;-77
2021/12/04 09:17:36;;;;;;;11.57;4.70;;;;;;;;;;5032164;28;20211;-76
2021/12/04 09:20:04;;;;;;;6.07;4.60;;;;;;;;;;5031330;28;20702;-77
2021/12/04 09:22:34;;;;;;;4.90;4.37;;;;;;;;;;5032263;28;20217;-77
2021/12/04 09:25:03;;;;;;;5.63;4.77;;;;;;;;;;5031597;28;20321;-77
2021/12/04 09:30:46;;;;;;;6.13;4.57;;;;;;;;;;5015925;28;20644;-77
2021/12/04 10:06:35;;;;;;;5.60;4.53;;;;;;;;;;5031551;28;20245;-76
2021/12/04 10:12:17;;;;;;;7.60;5.40;;;;;;;;;;5035558;28;20209;-76
2021/12/04 10:18:09;;;;;;;5.50;4.60;;;;;;;;;;5036414;28;20201;-76
2021/12/04 10:20:47;;;;;;;7.03;4.83;;;;;;;;;;5034590;28;20235;-76
2021/12/04 10:23:40;;;;;;;6.53;5.43;;;;;;;;;;5035522;28;20228;-76
2021/12/04 10:34:51;;;;;;;6.60;5.23;;;;;;;;;;5054136;28;20299;-76
2021/12/04 10:37:23;;;;;;;8.53;5.10;;;;;;;;;;5054653;28;20218;-76
2021/12/04 10:39:50;;;;;;;5.50;4.53;;;;;;;;;;5055184;28;20231;-77
2021/12/04 10:42:21;;;;;;;4.70;4.20;;;;;;;;;;5054980;28;20212;-77
2021/12/04 10:44:51;;;;;;;7.20;4.77;;;;;;;;;;5054133;28;20239;-77
2021/12/04 10:47:23;;;;;;;6.77;4.70;;;;;;;;;;5052689;28;20224;-77
2021/12/04 10:49:56;;;;;;;7.83;4.60;;;;;;;;;;5034520;28;20323;-77
2021/12/04 10:52:30;;;;;;;7.10;4.27;;;;;;;;;;5035244;28;20214;-77
2021/12/04 10:55:13;;;;;;;6.07;4.77;;;;;;;;;;5034678;28;20245;-78
2021/12/04 11:00:33;;;;;;;7.03;4.27;;;;;;;;;;5033978;28;20234;-77
2021/12/04 11:03:16;;;;;;;6.80;4.57;;;;;;;;;;5034743;28;20229;-77
2021/12/04 11:06:06;;;;;;;6.60;4.70;;;;;;;;;;5034223;28;20332;-77
2021/12/04 11:20:04;;;;;;;4.97;4.47;;;;;;;;;;5043588;28;20260;-77
2021/12/04 11:22:38;;;;;;;8.20;4.40;;;;;;;;;;5045986;28;20227;-76
2021/12/04 11:28:10;;;;;;;5.97;4.23;;;;;;;;;;5032502;28;20354;-77
2021/12/04 11:39:07;;;;;;;4.57;4.03;;;;;;;;;;5033682;28;20223;-77
2021/12/04 11:41:37;;;;;;;6.10;4.60;;;;;;;;;;5050972;28;20222;-76
2021/12/04 11:44:06;;;;;;;4.83;4.17;;;;;;;;;;5052383;28;20582;-76
2021/12/04 11:46:43;;;;;;;4.60;4.20;;;;;;;;;;5053618;28;20236;-76
2021/12/04 11:49:12;;;;;;;6.73;4.73;;;;;;;;;;5052646;28;20260;-76
2021/12/04 11:51:48;;;;;;;4.10;3.70;;;;;;;;;;5053032;28;20217;-76
2021/12/04 11:54:17;;;;;;;4.40;4.00;;;;;;;;;;5052590;28;20237;-76
2021/12/04 11:56:44;;;;;;;4.97;3.83;;;;;;;;;;5053271;28;20202;-76
2021/12/04 11:59:11;;;;;;;4.23;3.67;;;;;;;;;;5052703;28;20198;-77
2021/12/04 12:01:39;;;;;;;4.30;3.87;;;;;;;;;;5053032;28;20268;-76
2021/12/04 12:04:07;;;;;;;5.70;3.53;;;;;;;;;;5052272;28;20237;-76
2021/12/04 12:06:37;;;;;;;5.07;3.30;;;;;;;;;;5053193;28;20697;-75
2021/12/04 12:09:08;;;;;;;3.37;3.07;;;;;;;;;;5052510;28;20271;-76
2021/12/04 12:11:35;;;;;;;3.83;3.40;;;;;;;;;;5064947;28;20216;-76
2021/12/04 12:14:05;;;;;;;3.97;3.53;;;;;;;;;;5052066;28;20218;-76
2021/12/04 12:16:37;;;;;;;3.73;3.43;;;;;;;;;;5051124;28;20597;-76
2021/12/04 12:19:07;;;;;;;4.10;3.70;;;;;;;;;;5055016;28;20233;-77
2021/12/04 12:21:42;;;;;;;4.77;3.60;;;;;;;;;;5054801;28;20206;-77
2021/12/04 12:27:13;;;;;;;5.53;3.43;;;;;;;;;;5002071;28;20244;-76
2021/12/04 12:32:59;;;;;;;8.77;3.77;;;;;;;;;;5052191;28;20201;-76
2021/12/04 12:38:15;;;;;;;4.57;3.40;;;;;;;;;;5035325;28;20205;-76
2021/12/04 12:40:44;;;;;;;5.27;4.00;;;;;;;;;;5036149;28;20729;-76
2021/12/04 12:43:13;;;;;;;11.30;3.87;;;;;;;;;;5044134;28;20601;-76
2021/12/04 12:45:40;;;;;;;5.37;4.10;;;;;;;;;;5031789;28;20238;-76
2021/12/04 12:48:08;;;;;;;5.37;3.73;;;;;;;;;;5048057;28;20206;-76
2021/12/04 12:50:37;;;;;;;7.47;4.27;;;;;;;;;;5051473;28;20242;-76
2021/12/04 12:53:06;;;;;;;4.30;3.90;;;;;;;;;;5049044;28;20226;-76
2021/12/04 12:55:35;;;;;;;4.63;4.17;;;;;;;;;;5040260;28;20234;-76
2021/12/04 12:58:13;;;;;;;8.17;4.47;;;;;;;;;;5049310;28;20209;-76
2021/12/04 13:11:53;;;;;;;5.77;4.23;;;;;;;;;;5031015;28;20578;-76
2021/12/04 13:14:22;;;;;;;5.13;4.43;;;;;;;;;;5030741;28;20246;-75
2021/12/04 13:16:51;;;;;;;5.23;3.80;;;;;;;;;;5044661;28;20198;-76
2021/12/04 13:19:21;;;;;;;5.83;4.20;;;;;;;;;;5050743;28;20209;-76
2021/12/04 13:21:49;;;;;;;8.50;4.20;;;;;;;;;;5048524;28;20195;-76
2021/12/04 13:24:17;;;;;;;8.67;4.33;;;;;;;;;;5042847;28;20701;-76
2021/12/04 13:26:50;;;;;;;16.60;4.00;;;;;;;;;;5052027;28;20198;-76
2021/12/04 13:31:55;;;;;;;5.70;4.33;;;;;;;;;;5031465;28;20280;-76
2021/12/04 13:34:24;;;;;;;5.07;3.60;;;;;;;;;;5031522;28;20237;-73
2021/12/04 13:36:53;;;;;;;3.83;3.53;;;;;;;;;;5031792;28;20210;-74
2021/12/04 13:39:20;;;;;;;5.60;3.60;;;;;;;;;;5049823;28;20238;-76
2021/12/04 13:41:47;;;;;;;4.53;3.53;;;;;;;;;;5054741;28;20202;-76
2021/12/04 13:44:15;;;;;;;3.93;3.60;;;;;;;;;;5054703;28;20229;-76
2021/12/04 13:46:43;;;;;;;7.13;3.87;;;;;;;;;;5055654;28;20556;-76
2021/12/04 13:49:12;;;;;;;4.13;3.73;;;;;;;;;;5052027;28;20767;-76
2021/12/04 13:51:40;;;;;;;4.40;4.00;;;;;;;;;;5052055;28;20210;-76
2021/12/04 13:54:08;;;;;;;3.90;3.50;;;;;;;;;;5035381;28;20226;-78
2021/12/04 13:56:35;;;;;;;4.70;4.00;;;;;;;;;;5052784;28;20205;-77
2021/12/04 13:59:03;;;;;;;3.90;3.60;;;;;;;;;;5053999;28;20251;-75
2021/12/04 14:01:32;;;;;;;3.40;3.10;;;;;;;;;;5063192;28;20213;-77
2021/12/04 14:04:01;;;;;;;3.30;3.00;;;;;;;;;;5064007;28;20225;-75
2021/12/04 14:06:29;;;;;;;4.30;3.90;;;;;;;;;;5068312;28;20205;-76
2021/12/04 14:08:57;;;;;;;3.63;3.33;;;;;;;;;;5060575;28;20225;-76
2021/12/04 14:11:28;;;;;;;4.93;3.80;;;;;;;;;;5053313;28;20222;-75
2021/12/04 14:13:56;;;;;;;4.20;3.80;;;;;;;;;;5050511;28;20626;-76
2021/12/04 14:16:24;;;;;;;4.07;3.67;;;;;;;;;;5053868;28;20237;-76
2021/12/04 14:18:51;;;;;;;8.03;5.20;;;;;;;;;;5055001;28;20619;-75
2021/12/04 14:21:18;;;;;;;6.37;5.07;;;;;;;;;;5053906;28;20732;-74
2021/12/04 14:23:48;;;;;;;4.97;4.57;;;;;;;;;;5054705;28;20234;-75
2021/12/04 14:26:16;;;;;;;4.50;4.10;;;;;;;;;;5054254;28;20292;-76
2021/12/04 14:28:44;;;;;;;6.17;5.00;;;;;;;;;;5054643;28;20233;-75
2021/12/04 14:31:11;;;;;;;9.47;6.00;;;;;;;;;;5053958;28;20310;-76
2021/12/04 14:33:39;;;;;;;4.73;4.27;;;;;;;;;;5054697;28;20222;-75
2021/12/04 14:36:07;;;;;;;4.00;3.60;;;;;;;;;;5052749;28;20222;-74
2021/12/04 14:38:34;;;;;;;9.77;4.10;;;;;;;;;;5054796;28;20202;-75
2021/12/04 14:41:04;;;;;;;6.00;3.87;;;;;;;;;;5053901;28;20230;-75
2021/12/04 14:43:34;;;;;;;4.07;3.57;;;;;;;;;;5054801;28;20307;-75
2021/12/04 14:46:01;;;;;;;4.20;3.90;;;;;;;;;;5053928;28;20234;-75
2021/12/04 14:48:33;;;;;;;5.20;4.10;;;;;;;;;;5054220;28;20579;-75
2021/12/04 14:51:05;;;;;;;4.70;3.80;;;;;;;;;;5052919;28;20237;-76
2021/12/04 14:53:33;;;;;;;5.13;4.53;;;;;;;;;;5053268;28;20230;-77
2021/12/04 14:56:00;;;;;;;5.00;4.50;;;;;;;;;;5053446;28;20263;-77
2021/12/04 14:58:29;;;;;;;4.43;3.83;;;;;;;;;;5054493;28;20220;-77
2021/12/04 15:00:58;;;;;;;6.77;4.30;;;;;;;;;;5053628;28;20225;-79
2021/12/04 15:03:30;;;;;;;34.60;18.40;;;;;;;;;;5054216;28;20243;-74
2021/12/04 15:06:00;;;;;;;20.07;10.77;;;;;;;;;;5053184;28;20245;-75
2021/12/04 15:08:29;;;;;;;16.90;11.60;;;;;;;;;;5054379;28;20303;-76
2021/12/04 15:10:57;;;;;;;22.23;19.13;;;;;;;;;;5044489;28;20239;-75
2021/12/04 15:13:25;;;;;;;14.00;12.60;;;;;;;;;;5053453;28;20222;-76
2021/12/04 15:15:57;;;;;;;11.37;9.47;;;;;;;;;;5052937;28;20240;-75
2021/12/04 15:18:25;;;;;;;10.63;8.63;;;;;;;;;;5053467;28;20236;-76
2021/12/04 15:20:56;;;;;;;13.43;7.70;;;;;;;;;;5052799;28;20237;-76
2021/12/04 15:23:27;;;;;;;10.87;8.47;;;;;;;;;;5053132;28;20580;-76
2021/12/04 15:25:56;;;;;;;11.77;8.47;;;;;;;;;;5052754;28;20230;-76
2021/12/04 15:28:25;;;;;;;19.07;12.07;;;;;;;;;;5053184;28;20241;-75
2021/12/04 15:30:56;;;;;;;14.30;10.50;;;;;;;;;;5052633;28;20244;-75
2021/12/04 15:33:24;;;;;;;13.33;10.47;;;;;;;;;;5052822;28;20640;-75
2021/12/04 15:35:52;;;;;;;12.87;9.07;;;;;;;;;;5052131;28;20233;-76
2021/12/04 15:38:26;;;;;;;17.23;11.20;;;;;;;;;;5052865;28;20202;-75
2021/12/04 15:41:02;;;;;;;15.47;12.20;;;;;;;;;;5052375;28;20667;-76
2021/12/04 15:43:37;;;;;;;31.10;26.10;;;;;;;;;;5052829;28;20248;-75
2021/12/04 15:46:08;;;;;;;22.80;16.87;;;;;;;;;;5052420;28;20643;-76
2021/12/04 15:54:00;;;;;;;12.93;9.97;;;;;;;;;;5019023;28;20229;-75
2021/12/04 15:56:28;;;;;;;12.37;9.37;;;;;;;;;;5052032;28;20248;-75
2021/12/04 15:58:55;;;;;;;9.60;8.03;;;;;;;;;;5049505;28;20221;-75
2021/12/04 16:01:27;;;;;;;11.07;8.73;;;;;;;;;;5051484;28;20229;-76
2021/12/04 16:03:54;;;;;;;19.50;15.10;;;;;;;;;;5050892;28;20233;-76
2021/12/04 16:06:21;;;;;;;17.03;14.43;;;;;;;;;;5052057;28;20245;-77
2021/12/04 16:08:48;;;;;;;14.10;11.70;;;;;;;;;;5051918;28;20209;-76
2021/12/04 16:11:17;;;;;;;14.43;9.53;;;;;;;;;;5059858;28;20233;-76
2021/12/04 16:13:48;;;;;;;45.70;35.63;;;;;;;;;;5052554;28;20229;-76
2021/12/04 16:16:16;;;;;;;43.43;31.77;;;;;;;;;;5051837;28;20242;-76
2021/12/04 16:18:46;;;;;;;20.83;14.77;;;;;;;;;;5032998;28;20230;-76
2021/12/04 16:21:13;;;;;;;15.10;11.20;;;;;;;;;;5038416;28;20226;-76
2021/12/04 16:23:41;;;;;;;16.17;11.50;;;;;;;;;;5032544;28;20227;-76
2021/12/04 16:26:12;;;;;;;21.67;13.30;;;;;;;;;;5032520;28;20241;-76
2021/12/04 16:31:33;;;;;;;14.47;11.77;;;;;;;;;;5040608;28;20257;-76
2021/12/04 16:35:05;;;;;;;15.57;11.50;;;;;;;;;;5046980;28;20723;-76
2021/12/04 16:37:06;;;;;;;14.00;10.17;;;;;;;;;;5051945;28;20226;-76
2021/12/04 16:39:33;;;;;;;18.93;12.83;;;;;;;;;;5051197;28;20288;-76
2021/12/04 16:42:01;;;;;;;18.03;11.23;;;;;;;;;;5052010;28;20201;-76
2021/12/04 16:44:28;;;;;;;14.60;11.30;;;;;;;;;;5051263;28;20666;-76
2021/12/04 16:46:55;;;;;;;17.27;12.63;;;;;;;;;;5052011;28;20201;-76
2021/12/04 16:49:25;;;;;;;30.17;25.90;;;;;;;;;;5051151;28;20241;-76
2021/12/04 16:55:01;;;;;;;11.53;8.30;;;;;;;;;;5051052;28;20236;-76
2021/12/04 16:57:46;;;;;;;11.60;8.97;;;;;;;;;;5052093;28;20296;-76
2021/12/04 17:00:14;;;;;;;17.80;12.13;;;;;;;;;;5051303;28;20245;-77
2021/12/04 17:02:41;;;;;;;18.73;10.97;;;;;;;;;;5050695;28;20288;-76
2021/12/04 17:05:11;;;;;;;15.23;9.30;;;;;;;;;;5050663;28;20611;-77
2021/12/04 17:07:38;;;;;;;18.00;11.77;;;;;;;;;;5052484;28;20233;-76
2021/12/04 17:10:08;;;;;;;13.33;9.77;;;;;;;;;;5052066;28;20241;-76
2021/12/04 17:12:36;;;;;;;13.20;8.87;;;;;;;;;;5052125;28;20673;-76
2021/12/04 17:15:06;;;;;;;16.20;10.27;;;;;;;;;;5050504;28;20233;-76
2021/12/04 17:17:35;;;;;;;10.23;7.63;;;;;;;;;;5040088;28;20723;-76
2021/12/04 17:20:03;;;;;;;10.60;7.47;;;;;;;;;;5050594;28;20229;-77
2021/12/04 17:22:32;;;;;;;9.20;6.40;;;;;;;;;;5031380;28;20210;-77
2021/12/04 17:24:59;;;;;;;8.13;6.60;;;;;;;;;;5031084;28;20247;-77
2021/12/04 17:27:27;;;;;;;9.43;6.33;;;;;;;;;;5031534;28;20211;-76
2021/12/04 17:29:54;;;;;;;10.07;7.73;;;;;;;;;;5031110;28;20617;-76
2021/12/04 17:32:22;;;;;;;8.60;6.63;;;;;;;;;;5041743;28;20212;-77
2021/12/04 17:34:49;;;;;;;12.17;7.97;;;;;;;;;;5053936;28;20324;-77